Time;durP1;ratioP1;P1;durP2;ratioP2;P2;SDS_P1;SDS_P2;PMS_P1;PMS_P2;Temp;Humidity;BMP_temperature;BMP_pressure;BME280_temperature;BME280_humidity;BME280_pressure;Samples;Min_cycle;Max_cycle;Signal;HPM_P1;HPM_P2
2021/10/06 00:01:32;;;;;;;2.20;1.00;;;23.30;53.00;;;;;;4963392;28;20067;-53
2021/10/06 00:03:58;;;;;;;1.75;1.00;;;23.30;53.10;;;;;;4969408;28;20043;-59
2021/10/06 00:06:24;;;;;;;2.08;1.10;;;23.30;53.10;;;;;;4967081;28;20443;-58
2021/10/06 00:08:50;;;;;;;2.03;0.98;;;23.30;53.10;;;;;;4980263;28;20058;-52
2021/10/06 00:11:16;;;;;;;1.45;0.77;;;23.20;53.10;;;;;;4965916;28;20023;-50
2021/10/06 00:13:41;;;;;;;2.30;0.90;;;23.20;53.10;;;;;;4970450;28;20458;-54
2021/10/06 00:16:10;;;;;;;1.77;0.80;;;23.20;53.10;;;;;;4971508;28;20107;-55
2021/10/06 00:18:36;;;;;;;2.10;0.90;;;23.20;53.10;;;;;;4972754;28;20035;-47
2021/10/06 00:21:02;;;;;;;2.55;0.80;;;23.20;53.10;;;;;;4964870;28;20051;-60
2021/10/06 00:23:29;;;;;;;1.80;0.90;;;23.20;53.10;;;;;;4967954;28;20495;-56
2021/10/06 00:25:55;;;;;;;1.67;0.80;;;23.20;53.20;;;;;;4967409;28;20027;-49
2021/10/06 00:28:20;;;;;;;2.35;0.80;;;23.10;53.10;;;;;;4968527;28;20529;-55
2021/10/06 00:30:46;;;;;;;1.58;0.80;;;23.20;53.20;;;;;;4965550;28;20078;-59
2021/10/06 00:33:12;;;;;;;1.58;0.90;;;23.10;53.20;;;;;;4970679;28;20041;-48
2021/10/06 00:35:37;;;;;;;2.15;1.00;;;23.10;53.20;;;;;;4972586;28;20651;-60
2021/10/06 00:38:03;;;;;;;1.85;0.90;;;23.10;53.20;;;;;;4969785;28;20204;-54
2021/10/06 00:40:28;;;;;;;2.05;1.02;;;23.10;53.20;;;;;;4966247;28;20145;-59
2021/10/06 00:42:54;;;;;;;1.52;0.80;;;23.10;53.20;;;;;;4980123;28;20027;-58
2021/10/06 00:45:20;;;;;;;1.50;0.73;;;23.10;53.20;;;;;;4970165;28;20374;-56
2021/10/06 00:47:45;;;;;;;2.05;1.00;;;23.10;53.20;;;;;;4970383;28;20038;-51
2021/10/06 00:50:11;;;;;;;1.25;0.90;;;23.10;53.30;;;;;;4962608;28;20121;-55
2021/10/06 00:52:37;;;;;;;1.40;0.80;;;23.10;53.30;;;;;;4966830;28;20451;-56
2021/10/06 00:55:03;;;;;;;1.48;0.80;;;23.00;53.20;;;;;;4960250;28;20031;-48
2021/10/06 00:57:29;;;;;;;1.30;0.90;;;23.00;53.20;;;;;;4962070;28;20037;-55
2021/10/06 00:59:56;;;;;;;1.70;0.82;;;23.00;53.30;;;;;;4972141;28;20615;-52
2021/10/06 01:02:21;;;;;;;3.75;0.90;;;23.00;53.30;;;;;;4962933;28;20035;-60
2021/10/06 01:04:47;;;;;;;1.77;0.80;;;23.00;53.30;;;;;;4971250;28;20022;-51
2021/10/06 01:07:13;;;;;;;2.08;0.90;;;23.00;53.30;;;;;;4972482;28;20475;-48
2021/10/06 01:09:39;;;;;;;1.63;0.80;;;23.00;53.30;;;;;;4972338;28;20035;-51
2021/10/06 01:12:05;;;;;;;1.23;0.80;;;23.00;53.30;;;;;;4979555;28;20125;-51
2021/10/06 01:14:31;;;;;;;1.40;0.90;;;23.00;53.40;;;;;;4985060;28;20101;-56
2021/10/06 01:16:57;;;;;;;1.23;0.70;;;22.90;53.30;;;;;;4972939;28;20075;-53
2021/10/06 01:19:26;;;;;;;1.23;0.80;;;23.00;53.40;;;;;;4970956;28;20066;-60
2021/10/06 01:21:53;;;;;;;2.05;0.80;;;23.00;53.40;;;;;;4974067;28;20635;-52
2021/10/06 01:24:19;;;;;;;1.08;0.70;;;22.90;53.30;;;;;;4968821;28;20027;-60
2021/10/06 01:26:45;;;;;;;1.40;0.80;;;22.90;53.80;;;;;;4971045;28;20064;-53
2021/10/06 01:29:11;;;;;;;1.70;0.70;;;22.90;53.40;;;;;;4967385;28;20050;-50
2021/10/06 01:31:37;;;;;;;1.15;0.70;;;22.90;53.40;;;;;;4958372;28;20039;-52
2021/10/06 01:34:02;;;;;;;1.38;0.75;;;22.90;53.40;;;;;;4977870;28;20042;-58
2021/10/06 01:36:28;;;;;;;1.45;0.80;;;22.90;53.40;;;;;;4968595;28;20042;-55
2021/10/06 01:38:54;;;;;;;1.45;0.80;;;22.90;53.40;;;;;;4978850;28;20080;-59
2021/10/06 01:41:19;;;;;;;2.22;0.88;;;22.90;53.40;;;;;;4962858;28;20035;-52
2021/10/06 01:43:45;;;;;;;1.20;0.70;;;22.90;53.40;;;;;;4967390;28;20410;-53
2021/10/06 01:46:11;;;;;;;1.25;0.80;;;22.90;53.40;;;;;;4971649;28;20069;-60
2021/10/06 01:48:36;;;;;;;1.20;0.80;;;22.90;53.40;;;;;;4978520;28;20038;-60
2021/10/06 01:51:02;;;;;;;2.17;0.80;;;22.80;53.40;;;;;;4958555;28;20438;-52
2021/10/06 01:53:38;;;;;;;1.60;0.80;;;22.80;53.40;;;;;;4979064;28;20104;-51
2021/10/06 01:56:04;;;;;;;1.10;0.70;;;22.80;53.40;;;;;;4973292;28;20035;-55
2021/10/06 01:58:30;;;;;;;1.52;0.90;;;22.80;53.40;;;;;;4976953;28;20340;-60
2021/10/06 02:00:56;;;;;;;1.42;0.60;;;22.80;53.40;;;;;;4974936;28;20046;-54
2021/10/06 02:03:21;;;;;;;1.05;0.70;;;22.80;53.50;;;;;;4971387;28;20039;-52
2021/10/06 02:05:47;;;;;;;1.25;0.68;;;22.80;53.50;;;;;;4967765;28;20105;-55
2021/10/06 02:08:14;;;;;;;0.77;0.63;;;22.80;53.50;;;;;;4981715;28;20342;-53
2021/10/06 02:10:40;;;;;;;1.90;0.70;;;22.80;53.50;;;;;;4975423;28;20063;-56
2021/10/06 02:13:06;;;;;;;1.42;0.77;;;22.80;53.50;;;;;;4966345;28;20432;-49
2021/10/06 02:15:32;;;;;;;1.77;0.80;;;22.80;53.50;;;;;;4974630;28;20059;-53
2021/10/06 02:17:58;;;;;;;2.10;0.90;;;22.70;53.50;;;;;;4977476;28;20039;-52
2021/10/06 02:20:23;;;;;;;1.20;0.70;;;22.70;53.50;;;;;;4963076;28;20038;-52
2021/10/06 02:22:50;;;;;;;1.27;0.70;;;22.70;53.50;;;;;;4973882;28;20466;-60
2021/10/06 02:25:15;;;;;;;1.40;0.73;;;22.70;53.50;;;;;;4966416;28;20030;-48
2021/10/06 02:27:41;;;;;;;1.08;0.70;;;22.70;53.50;;;;;;4971926;28;20035;-54
2021/10/06 02:30:08;;;;;;;1.50;0.70;;;22.70;53.50;;;;;;4970326;28;20027;-60
2021/10/06 02:32:33;;;;;;;0.93;0.70;;;22.70;54.10;;;;;;4960835;28;20062;-53
2021/10/06 02:34:59;;;;;;;1.67;0.90;;;22.70;53.60;;;;;;4962771;28;20098;-55
2021/10/06 02:37:25;;;;;;;1.13;0.77;;;22.70;53.60;;;;;;4975121;28;20109;-53
2021/10/06 02:39:51;;;;;;;1.52;0.80;;;22.70;53.60;;;;;;4970733;28;20042;-54
2021/10/06 02:42:17;;;;;;;1.42;0.70;;;22.70;53.60;;;;;;4971473;28;20046;-51
2021/10/06 02:44:43;;;;;;;0.63;0.60;;;22.70;53.60;;;;;;4964553;28;20054;-48
2021/10/06 02:47:08;;;;;;;1.17;0.73;;;22.70;53.60;;;;;;4962137;28;20407;-54
2021/10/06 02:49:34;;;;;;;1.63;0.70;;;22.70;53.70;;;;;;4970109;28;20039;-52
2021/10/06 02:52:00;;;;;;;1.45;0.65;;;22.60;53.60;;;;;;4967116;28;20414;-55
2021/10/06 02:54:25;;;;;;;0.82;0.70;;;22.70;53.70;;;;;;4964986;28;20035;-53
2021/10/06 02:56:51;;;;;;;0.82;0.70;;;22.60;53.60;;;;;;4971994;28;20042;-48
2021/10/06 02:59:17;;;;;;;1.30;0.77;;;22.60;53.60;;;;;;4979789;28;20550;-59
2021/10/06 03:01:42;;;;;;;0.65;0.60;;;22.60;53.60;;;;;;4967565;28;20060;-52
2021/10/06 03:04:08;;;;;;;0.80;0.70;;;22.60;53.60;;;;;;4967469;28;20078;-55
2021/10/06 03:06:34;;;;;;;1.25;0.70;;;22.60;53.60;;;;;;4975394;28;20859;-47
2021/10/06 03:08:59;;;;;;;1.17;0.70;;;22.60;53.60;;;;;;4971632;28;20451;-48
2021/10/06 03:11:25;;;;;;;1.92;0.60;;;22.60;53.60;;;;;;4970875;28;20145;-50
2021/10/06 03:13:50;;;;;;;1.08;0.70;;;22.60;53.60;;;;;;4971477;28;20129;-53
2021/10/06 03:16:16;;;;;;;1.00;0.70;;;22.60;53.60;;;;;;4966393;28;20114;-47
2021/10/06 03:18:42;;;;;;;1.38;0.70;;;22.60;53.60;;;;;;4967875;28;20078;-52
2021/10/06 03:21:07;;;;;;;1.50;0.70;;;22.60;53.60;;;;;;4972454;28;20046;-56
2021/10/06 03:23:33;;;;;;;1.55;0.80;;;22.60;53.70;;;;;;4977541;28;20438;-55
2021/10/06 03:25:58;;;;;;;0.70;0.68;;;22.60;53.70;;;;;;4963730;28;20027;-56
2021/10/06 03:28:24;;;;;;;0.65;0.60;;;22.60;53.70;;;;;;4974692;28;20038;-55
2021/10/06 03:30:50;;;;;;;0.80;0.60;;;22.50;53.60;;;;;;4962677;28;20046;-54
2021/10/06 03:33:15;;;;;;;0.85;0.70;;;22.60;53.70;;;;;;4966717;28;20026;-55
2021/10/06 03:35:41;;;;;;;0.82;0.65;;;22.50;53.60;;;;;;4970987;28;20031;-53
2021/10/06 03:38:07;;;;;;;1.05;0.70;;;22.50;53.60;;;;;;4963670;28;20081;-57
2021/10/06 03:40:32;;;;;;;1.30;0.77;;;22.50;53.70;;;;;;4972732;28;20078;-53
2021/10/06 03:42:58;;;;;;;0.95;0.68;;;22.50;54.20;;;;;;4957078;28;20097;-54
2021/10/06 03:45:24;;;;;;;0.88;0.60;;;22.50;53.70;;;;;;4973471;28;20038;-50
2021/10/06 03:47:49;;;;;;;0.63;0.60;;;22.50;53.70;;;;;;4969480;28;20034;-52
2021/10/06 03:50:17;;;;;;;0.88;0.65;;;22.50;53.70;;;;;;4964964;28;20057;-58
2021/10/06 03:52:43;;;;;;;1.10;0.70;;;22.50;53.70;;;;;;4963149;28;20054;-49
2021/10/06 03:55:10;;;;;;;1.23;0.70;;;22.50;53.70;;;;;;4973396;28;20386;-57
2021/10/06 03:57:36;;;;;;;1.13;0.68;;;22.50;53.80;;;;;;4965743;28;20037;-59
2021/10/06 04:00:05;;;;;;;0.93;0.60;;;22.50;53.80;;;;;;4973110;28;20305;-56
2021/10/06 04:02:30;;;;;;;1.15;0.60;;;22.40;53.80;;;;;;4958685;28;20494;-52
2021/10/06 04:04:56;;;;;;;1.40;0.77;;;22.40;53.80;;;;;;4980174;28;20103;-54
2021/10/06 04:07:22;;;;;;;0.82;0.50;;;22.40;53.80;;;;;;4966509;28;20056;-53
2021/10/06 04:09:47;;;;;;;2.20;1.00;;;22.40;53.80;;;;;;4968598;28;20038;-55
2021/10/06 04:12:13;;;;;;;1.40;0.65;;;22.40;53.80;;;;;;4971733;28;20424;-53
2021/10/06 04:14:39;;;;;;;0.63;0.60;;;22.40;53.80;;;;;;4968535;28;20038;-59
2021/10/06 04:17:04;;;;;;;0.90;0.60;;;22.40;53.90;;;;;;4962886;28;20572;-52
2021/10/06 04:19:30;;;;;;;1.00;0.70;;;22.40;53.90;;;;;;4958622;28;20035;-59
2021/10/06 04:21:56;;;;;;;0.70;0.60;;;22.40;53.90;;;;;;4972256;28;20031;-50
2021/10/06 04:24:21;;;;;;;0.88;0.50;;;22.40;53.90;;;;;;4976175;28;20026;-55
2021/10/06 04:26:47;;;;;;;0.73;0.70;;;22.40;53.90;;;;;;4974331;28;20038;-60
2021/10/06 04:29:12;;;;;;;0.82;0.70;;;22.40;53.90;;;;;;4974457;28;20053;-60
2021/10/06 04:31:38;;;;;;;0.60;0.60;;;22.40;53.90;;;;;;4963345;28;20089;-56
2021/10/06 04:34:04;;;;;;;0.90;0.70;;;22.40;53.90;;;;;;4967805;28;20088;-56
2021/10/06 04:36:34;;;;;;;0.85;0.60;;;22.40;53.90;;;;;;4960623;28;20031;-53
2021/10/06 04:39:00;;;;;;;0.50;0.50;;;22.40;53.90;;;;;;4967667;28;20530;-59
2021/10/06 04:41:26;;;;;;;0.98;0.60;;;22.40;54.00;;;;;;4969689;28;20174;-53
2021/10/06 04:43:51;;;;;;;1.52;0.60;;;22.30;53.90;;;;;;4963194;28;20058;-57
2021/10/06 04:46:18;;;;;;;0.80;0.60;;;22.40;54.00;;;;;;4963081;28;20462;-46
2021/10/06 04:48:47;;;;;;;0.88;0.50;;;22.30;53.90;;;;;;4969542;28;20062;-47
2021/10/06 04:51:13;;;;;;;0.80;0.52;;;22.30;53.90;;;;;;4970934;28;20109;-56
2021/10/06 04:53:39;;;;;;;0.63;0.50;;;22.30;53.90;;;;;;4972036;28;20489;-52
2021/10/06 04:56:05;;;;;;;0.80;0.60;;;22.30;54.00;;;;;;4970585;28;20027;-50
2021/10/06 04:58:31;;;;;;;1.02;0.60;;;22.30;54.00;;;;;;4974309;28;20056;-49
2021/10/06 05:00:56;;;;;;;0.80;0.52;;;22.30;54.00;;;;;;4962460;28;20046;-47
2021/10/06 05:03:22;;;;;;;0.88;0.50;;;22.30;54.00;;;;;;4966752;28;20124;-51
2021/10/06 05:05:48;;;;;;;1.15;0.65;;;22.30;54.00;;;;;;4959203;28;20349;-52
2021/10/06 05:08:13;;;;;;;1.58;1.00;;;22.30;54.00;;;;;;4961533;28;20033;-50
2021/10/06 05:10:39;;;;;;;1.25;0.60;;;22.30;54.00;;;;;;4968757;28;20063;-55
2021/10/06 05:13:05;;;;;;;0.60;0.60;;;22.30;54.10;;;;;;4983180;28;20035;-47
2021/10/06 05:15:31;;;;;;;0.80;0.68;;;22.30;54.00;;;;;;4964885;28;20063;-57
2021/10/06 05:17:56;;;;;;;1.27;0.68;;;22.30;54.00;;;;;;4979136;28;20054;-53
2021/10/06 05:20:25;;;;;;;1.08;0.60;;;22.30;54.00;;;;;;4966619;28;20038;-51
2021/10/06 05:22:52;;;;;;;1.33;0.63;;;22.30;54.00;;;;;;4965465;28;20370;-54
2021/10/06 05:25:18;;;;;;;1.45;0.60;;;22.30;54.00;;;;;;4959102;28;20487;-53
2021/10/06 05:27:43;;;;;;;0.63;0.52;;;22.30;54.00;;;;;;4986432;28;20101;-49
2021/10/06 05:30:10;;;;;;;1.27;0.65;;;22.30;54.10;;;;;;4982403;28;20027;-59
2021/10/06 05:32:36;;;;;;;0.82;0.60;;;22.20;54.00;;;;;;4967390;28;20363;-55
2021/10/06 05:35:03;;;;;;;2.13;0.70;;;22.30;54.10;;;;;;4960989;28;20031;-56
2021/10/06 05:37:28;;;;;;;1.30;0.70;;;22.30;54.20;;;;;;4970804;28;20030;-48
2021/10/06 05:39:54;;;;;;;1.40;0.82;;;22.40;54.10;;;;;;4981759;28;20402;-55
2021/10/06 05:42:20;;;;;;;1.88;0.80;;;22.50;53.80;;;;;;4972856;28;22009;-57
2021/10/06 05:44:46;;;;;;;1.60;0.80;;;22.60;53.60;;;;;;4975464;28;20045;-51
2021/10/06 05:47:12;;;;;;;1.70;0.80;;;22.60;53.60;;;;;;4977531;28;20050;-58
2021/10/06 05:49:38;;;;;;;1.33;0.82;;;22.70;53.40;;;;;;4980715;28;20031;-54
2021/10/06 05:52:04;;;;;;;2.25;0.70;;;22.80;53.40;;;;;;4972098;28;20031;-58
2021/10/06 05:54:29;;;;;;;1.67;0.70;;;22.80;53.20;;;;;;4977449;28;20052;-59
2021/10/06 05:56:55;;;;;;;2.58;0.80;;;22.90;53.20;;;;;;4976780;28;20058;-54
2021/10/06 05:59:20;;;;;;;0.70;0.50;;;23.00;53.00;;;;;;4977114;28;20022;-59
2021/10/06 06:01:46;;;;;;;1.48;0.70;;;23.10;52.90;;;;;;4966144;28;20058;-52
2021/10/06 06:04:13;;;;;;;2.22;0.70;;;23.20;52.80;;;;;;4977798;28;20031;-58
2021/10/06 06:06:42;;;;;;;1.88;0.70;;;23.20;52.60;;;;;;4962999;28;20030;-53
2021/10/06 06:09:08;;;;;;;1.88;0.70;;;23.30;52.50;;;;;;4961999;28;20031;-59
2021/10/06 06:11:34;;;;;;;1.52;0.60;;;23.40;52.40;;;;;;4967643;28;20051;-54
2021/10/06 06:14:00;;;;;;;2.08;0.70;;;23.50;52.30;;;;;;4980626;28;20051;-57
2021/10/06 06:16:26;;;;;;;2.42;0.70;;;23.50;52.10;;;;;;4980795;28;20022;-52
2021/10/06 06:18:51;;;;;;;1.08;0.60;;;23.60;51.90;;;;;;4976196;28;20450;-55
2021/10/06 06:21:17;;;;;;;2.30;0.70;;;23.70;51.60;;;;;;4976134;28;20459;-54
2021/10/06 06:23:43;;;;;;;0.82;0.50;;;23.80;51.40;;;;;;4984690;28;20037;-55
2021/10/06 06:26:09;;;;;;;1.75;0.90;;;23.90;51.20;;;;;;4971019;28;20031;-47
2021/10/06 06:28:35;;;;;;;1.75;0.70;;;23.90;51.30;;;;;;4976827;28;20049;-59
2021/10/06 06:31:01;;;;;;;0.88;0.50;;;23.90;51.30;;;;;;4962670;28;20205;-60
2021/10/06 06:33:27;;;;;;;1.33;0.70;;;23.90;51.40;;;;;;4972356;28;20110;-51
2021/10/06 06:35:52;;;;;;;1.58;0.80;;;23.90;51.40;;;;;;4977309;28;20038;-51
2021/10/06 06:38:18;;;;;;;2.47;0.80;;;23.90;51.40;;;;;;4983238;28;20105;-58
2021/10/06 06:40:44;;;;;;;1.50;0.80;;;23.90;51.40;;;;;;4976189;28;20046;-59
2021/10/06 06:43:11;;;;;;;0.80;0.60;;;23.90;51.40;;;;;;4972401;28;20070;-54
2021/10/06 06:45:37;;;;;;;2.03;0.75;;;23.90;51.40;;;;;;4973182;28;20093;-56
2021/10/06 06:48:04;;;;;;;1.48;0.80;;;23.80;51.30;;;;;;4972390;28;20347;-54
2021/10/06 06:50:30;;;;;;;2.15;0.90;;;23.90;51.30;;;;;;4980869;28;20726;-51
2021/10/06 06:52:56;;;;;;;0.95;0.60;;;23.90;51.30;;;;;;4981364;28;20031;-56
2021/10/06 06:55:22;;;;;;;1.02;0.68;;;23.90;51.30;;;;;;4971155;28;20405;-50
2021/10/06 06:57:48;;;;;;;1.73;0.70;;;23.90;51.30;;;;;;4982505;28;20340;-58
2021/10/06 07:00:14;;;;;;;1.20;0.70;;;23.90;51.30;;;;;;4968758;28;20130;-54
2021/10/06 07:02:39;;;;;;;0.82;0.60;;;23.90;51.30;;;;;;4964073;28;20142;-59
2021/10/06 07:05:06;;;;;;;1.67;0.70;;;23.90;51.30;;;;;;4971351;28;20049;-58
2021/10/06 07:07:31;;;;;;;1.90;0.60;;;23.90;51.40;;;;;;4978432;28;20106;-58
2021/10/06 07:09:57;;;;;;;1.75;0.60;;;23.90;51.30;;;;;;4972379;28;20106;-52
2021/10/06 07:12:22;;;;;;;1.70;0.68;;;23.90;51.30;;;;;;4976664;28;20109;-59
2021/10/06 07:14:50;;;;;;;2.67;0.65;;;23.90;51.30;;;;;;4982946;28;20467;-58
2021/10/06 07:17:16;;;;;;;0.90;0.60;;;23.90;51.40;;;;;;4961123;28;20020;-54
2021/10/06 07:19:42;;;;;;;1.05;0.70;;;23.90;51.40;;;;;;4978923;28;20065;-49
2021/10/06 07:22:08;;;;;;;0.98;0.52;;;23.90;51.40;;;;;;4981921;28;20026;-55
2021/10/06 07:24:35;;;;;;;1.13;0.68;;;23.90;51.60;;;;;;4970726;28;20030;-55
2021/10/06 07:27:01;;;;;;;2.20;0.80;;;23.90;51.70;;;;;;4979642;28;20066;-50
2021/10/06 07:29:26;;;;;;;1.40;0.80;;;23.90;51.60;;;;;;4973148;28;20061;-59
2021/10/06 07:31:52;;;;;;;1.17;0.75;;;23.90;51.50;;;;;;4975279;28;20180;-51
2021/10/06 07:34:18;;;;;;;0.80;0.52;;;23.90;51.50;;;;;;4970925;28;20455;-55
2021/10/06 07:36:43;;;;;;;0.88;0.70;;;23.90;51.40;;;;;;4978245;28;20125;-58
2021/10/06 07:39:09;;;;;;;3.40;0.70;;;23.90;51.40;;;;;;4978197;28;20045;-56
2021/10/06 07:41:35;;;;;;;2.40;0.80;;;23.90;51.30;;;;;;4972142;28;20107;-54
2021/10/06 07:44:01;;;;;;;1.23;0.60;;;23.90;51.30;;;;;;4990355;28;20034;-54
2021/10/06 07:46:27;;;;;;;1.83;0.80;;;23.90;51.40;;;;;;4969557;28;20030;-53
2021/10/06 07:48:53;;;;;;;1.48;0.52;;;23.90;51.50;;;;;;4969896;28;20030;-53
2021/10/06 07:51:19;;;;;;;1.38;0.60;;;23.90;52.00;;;;;;4972352;28;20026;-54
2021/10/06 07:53:47;;;;;;;1.02;0.50;;;23.90;51.60;;;;;;4979341;28;20128;-54
2021/10/06 07:56:13;;;;;;;1.20;0.63;;;23.90;51.80;;;;;;4972117;28;20445;-54
2021/10/06 07:58:39;;;;;;;1.25;0.65;;;23.90;51.60;;;;;;4973454;28;20042;-51
2021/10/06 08:01:04;;;;;;;1.35;0.77;;;23.90;51.60;;;;;;4965076;28;20039;-52
2021/10/06 08:03:30;;;;;;;1.77;0.68;;;23.90;51.90;;;;;;4971963;28;20030;-59
2021/10/06 08:05:56;;;;;;;0.93;0.70;;;23.90;51.60;;;;;;4964000;28;20156;-51
2021/10/06 08:08:26;;;;;;;2.08;0.65;;;23.90;51.70;;;;;;4969367;28;20023;-53
2021/10/06 08:10:54;;;;;;;1.17;0.68;;;23.90;51.60;;;;;;4974420;28;20072;-49
2021/10/06 08:13:20;;;;;;;2.10;0.70;;;24.00;51.70;;;;;;4976002;28;20031;-54
2021/10/06 08:15:46;;;;;;;1.27;0.55;;;24.00;51.60;;;;;;4971051;28;20030;-53
2021/10/06 08:18:12;;;;;;;1.73;0.80;;;24.00;51.60;;;;;;4980756;28;20093;-58
2021/10/06 08:20:38;;;;;;;3.05;0.70;;;24.00;51.60;;;;;;4968135;28;20620;-52
2021/10/06 08:23:04;;;;;;;1.60;0.65;;;24.00;51.40;;;;;;4974695;28;20501;-51
2021/10/06 08:25:30;;;;;;;2.20;0.70;;;23.90;51.40;;;;;;4975278;28;20030;-58
2021/10/06 08:27:56;;;;;;;3.03;0.80;;;24.00;51.40;;;;;;4978497;28;20033;-55
2021/10/06 08:30:23;;;;;;;1.63;0.80;;;24.00;51.90;;;;;;4967945;28;20027;-55
2021/10/06 08:32:49;;;;;;;0.95;0.60;;;24.00;51.30;;;;;;4971328;28;20037;-56
2021/10/06 08:35:15;;;;;;;1.38;0.70;;;24.00;51.50;;;;;;4976192;28;20031;-58
2021/10/06 08:37:41;;;;;;;1.15;0.60;;;24.00;51.50;;;;;;4973629;28;20146;-51
2021/10/06 08:40:07;;;;;;;1.08;0.60;;;23.90;51.60;;;;;;4970978;28;20133;-50
2021/10/06 08:42:33;;;;;;;1.50;0.65;;;24.00;51.40;;;;;;4976704;28;20325;-53
2021/10/06 08:45:01;;;;;;;2.00;0.60;;;24.00;51.30;;;;;;4968210;28;21801;-52
2021/10/06 08:47:27;;;;;;;0.63;0.50;;;24.00;51.30;;;;;;4972122;28;20027;-58
2021/10/06 08:49:53;;;;;;;0.93;0.70;;;24.00;51.30;;;;;;4970872;28;20098;-53
2021/10/06 08:52:18;;;;;;;1.98;0.70;;;24.00;51.40;;;;;;4961290;28;20047;-54
2021/10/06 08:54:44;;;;;;;1.88;0.70;;;24.00;51.40;;;;;;4971059;28;20355;-52
2021/10/06 08:57:16;;;;;;;1.02;0.50;;;24.00;51.50;;;;;;4976602;28;20026;-53
2021/10/06 08:59:43;;;;;;;3.42;0.80;;;24.00;51.30;;;;;;4969349;28;20035;-51
2021/10/06 09:02:11;;;;;;;2.10;0.70;;;24.00;51.30;;;;;;4979373;28;20188;-49
2021/10/06 09:04:36;;;;;;;0.55;0.55;;;24.00;51.30;;;;;;5002558;28;20037;-49
2021/10/06 09:07:03;;;;;;;1.65;0.90;;;24.00;51.30;;;;;;4993423;28;20023;-53
2021/10/06 09:09:32;;;;;;;1.50;0.70;;;24.00;51.30;;;;;;4989569;28;20541;-51
2021/10/06 09:11:59;;;;;;;;;;;24.00;51.30;;;;;;4995046;28;20030;-58
2021/10/06 09:14:25;;;;;;;1.38;0.70;;;24.00;51.30;;;;;;4979128;28;19979;-51
2021/10/06 09:17:15;;;;;;;0.68;0.50;;;24.00;51.30;;;;;;5000862;28;20104;-53
2021/10/06 09:19:45;;;;;;;1.92;0.75;;;24.10;51.40;;;;;;4983946;28;20031;-53
2021/10/06 09:22:32;;;;;;;1.08;0.70;;;24.00;51.30;;;;;;4990510;28;20035;-54
2021/10/06 09:25:02;;;;;;;1.25;0.80;;;24.00;51.30;;;;;;4981880;28;20085;-52
2021/10/06 09:27:30;;;;;;;2.00;0.90;;;24.00;51.20;;;;;;4985788;28;20065;-48
2021/10/06 09:29:59;;;;;;;2.45;0.90;;;24.00;51.20;;;;;;4999114;28;20099;-57
2021/10/06 09:32:30;;;;;;;1.58;0.60;;;24.10;51.30;;;;;;4972692;28;20030;-58
2021/10/06 09:35:25;;;;;;;1.95;0.70;;;24.00;51.30;;;;;;4964429;28;20086;-54
2021/10/06 09:37:53;;;;;;;3.10;0.60;;;24.00;51.30;;;;;;4974145;28;20126;-48
2021/10/06 09:40:23;;;;;;;1.38;0.65;;;24.00;51.40;;;;;;4977741;28;20071;-50
2021/10/06 09:42:48;;;;;;;;;;;24.00;51.30;;;;;;4982456;28;20030;-59
2021/10/06 09:45:26;;;;;;;1.40;0.50;;;24.00;51.60;;;;;;4977993;28;19925;-50
2021/10/06 09:47:59;;;;;;;1.25;0.52;;;24.10;51.60;;;;;;4974058;28;20046;-51
2021/10/06 09:50:25;;;;;;;1.55;0.55;;;24.00;51.40;;;;;;4967679;28;20031;-52
2021/10/06 09:52:53;;;;;;;1.02;0.60;;;24.00;51.60;;;;;;4972158;28;20424;-52
2021/10/06 09:55:19;;;;;;;4.30;0.90;;;24.10;51.60;;;;;;4972412;28;20049;-51
2021/10/06 09:57:45;;;;;;;1.95;0.70;;;24.10;51.70;;;;;;4970208;28;20039;-58
2021/10/06 10:00:20;;;;;;;1.23;0.70;;;24.10;51.50;;;;;;4963205;28;20031;-53
2021/10/06 10:02:47;;;;;;;4.25;0.80;;;24.10;51.40;;;;;;4975293;28;20426;-49
2021/10/06 10:05:15;;;;;;;1.65;0.60;;;24.00;51.30;;;;;;4962436;28;20082;-58
2021/10/06 10:07:41;;;;;;;1.23;0.68;;;24.00;51.10;;;;;;4968145;28;20031;-58
2021/10/06 10:10:10;;;;;;;3.53;0.80;;;24.00;51.10;;;;;;4977774;28;20467;-54
2021/10/06 10:12:35;;;;;;;1.80;0.82;;;24.00;51.10;;;;;;4977025;28;20031;-59
2021/10/06 10:15:02;;;;;;;1.80;0.70;;;24.00;51.00;;;;;;4972842;28;20434;-60
2021/10/06 10:17:28;;;;;;;2.10;0.70;;;24.00;51.00;;;;;;4964298;28;20501;-50
2021/10/06 10:20:00;;;;;;;1.55;0.70;;;24.00;51.00;;;;;;4964172;28;20031;-56
2021/10/06 10:22:45;;;;;;;1.38;0.80;;;23.90;51.10;;;;;;4963835;28;20035;-60
2021/10/06 10:25:38;;;;;;;1.50;0.80;;;23.90;51.00;;;;;;4969320;28;20046;-54
2021/10/06 10:28:14;;;;;;;2.00;0.80;;;23.90;51.00;;;;;;4969138;28;20175;-54
2021/10/06 10:31:01;;;;;;;1.33;0.70;;;23.90;51.10;;;;;;4970950;28;20085;-50
2021/10/06 10:33:40;;;;;;;0.95;0.55;;;23.90;51.00;;;;;;4972306;28;20533;-59
2021/10/06 10:36:40;;;;;;;1.02;0.60;;;23.90;51.00;;;;;;4964768;28;20131;-55
2021/10/06 10:39:35;;;;;;;1.90;0.80;;;23.90;51.10;;;;;;4977315;28;20256;-56
2021/10/06 10:42:00;;;;;;;1.67;0.70;;;23.80;51.00;;;;;;4972687;28;20106;-56
2021/10/06 10:44:34;;;;;;;1.30;0.75;;;23.80;51.10;;;;;;4971533;28;20170;-53
2021/10/06 10:47:06;;;;;;;1.90;0.60;;;23.80;51.10;;;;;;4969580;28;20085;-51
2021/10/06 10:49:44;;;;;;;1.38;0.52;;;23.80;51.20;;;;;;4967572;28;20031;-48
2021/10/06 10:52:10;;;;;;;0.70;0.50;;;23.80;51.40;;;;;;4968864;28;20039;-54
2021/10/06 10:54:39;;;;;;;0.88;0.60;;;23.80;51.50;;;;;;4968932;28;20098;-55
2021/10/06 10:57:28;;;;;;;1.48;0.60;;;23.80;51.40;;;;;;4973812;28;20055;-48
2021/10/06 10:59:56;;;;;;;2.55;1.13;;;23.80;51.40;;;;;;4964425;28;20039;-51
2021/10/06 11:02:33;;;;;;;2.70;0.68;;;23.80;51.40;;;;;;4968464;28;20514;-57
2021/10/06 11:05:06;;;;;;;1.42;0.70;;;23.80;51.60;;;;;;4968239;28;20022;-57
2021/10/06 11:07:33;;;;;;;1.42;0.60;;;23.80;51.30;;;;;;4976425;28;20110;-53
2021/10/06 11:10:01;;;;;;;1.67;0.80;;;23.80;51.30;;;;;;4969323;28;20027;-57
2021/10/06 11:12:28;;;;;;;2.47;0.70;;;23.80;51.30;;;;;;4965799;28;20033;-59
2021/10/06 11:15:13;;;;;;;2.05;0.93;;;23.80;51.40;;;;;;4970103;28;20066;-59
2021/10/06 11:18:18;;;;;;;0.55;0.55;;;23.80;51.50;;;;;;4972732;28;20371;-56
2021/10/06 11:20:56;;;;;;;2.05;0.70;;;23.80;51.60;;;;;;4964421;28;20059;-58
2021/10/06 11:23:30;;;;;;;1.85;0.90;;;23.80;51.40;;;;;;4964581;28;20041;-54
2021/10/06 11:26:27;;;;;;;2.88;0.70;;;23.80;51.40;;;;;;4975051;28;20029;-55
2021/10/06 11:28:55;;;;;;;0.82;0.50;;;23.80;51.80;;;;;;4978703;28;20173;-58
2021/10/06 11:31:24;;;;;;;0.95;0.60;;;23.90;51.90;;;;;;4976714;28;20037;-48
2021/10/06 11:33:50;;;;;;;0.98;0.60;;;23.90;51.80;;;;;;4968601;28;20435;-52
2021/10/06 11:36:34;;;;;;;1.60;0.70;;;23.90;51.70;;;;;;4964613;28;20141;-55
2021/10/06 11:39:10;;;;;;;1.13;0.60;;;23.90;51.60;;;;;;4972890;28;20042;-51
2021/10/06 11:41:44;;;;;;;1.42;0.70;;;23.90;51.60;;;;;;4962392;28;20042;-53
2021/10/06 11:44:09;;;;;;;1.85;0.88;;;23.90;52.10;;;;;;4979722;28;20540;-56
2021/10/06 11:46:35;;;;;;;1.33;0.60;;;23.90;51.80;;;;;;4971956;28;20122;-59
2021/10/06 11:49:05;;;;;;;1.42;0.60;;;23.90;51.80;;;;;;4971957;28;20428;-59
2021/10/06 11:51:47;;;;;;;1.77;0.82;;;23.90;51.70;;;;;;4963627;28;20101;-49
2021/10/06 11:54:19;;;;;;;2.15;0.70;;;23.90;51.70;;;;;;4969929;28;20428;-51
2021/10/06 11:56:48;;;;;;;2.75;0.70;;;24.00;51.70;;;;;;4979032;28;20037;-50
2021/10/06 11:59:16;;;;;;;1.13;0.70;;;24.00;52.30;;;;;;4976520;28;20045;-56
2021/10/06 12:01:53;;;;;;;2.67;0.70;;;23.90;51.60;;;;;;4963470;28;20043;-56
2021/10/06 12:04:22;;;;;;;1.15;0.60;;;24.00;51.70;;;;;;4969768;28;20030;-51
2021/10/06 12:06:55;;;;;;;1.52;0.70;;;24.00;51.70;;;;;;4972915;28;20018;-53
2021/10/06 12:09:21;;;;;;;1.85;0.88;;;23.90;51.60;;;;;;4962637;28;20030;-56
2021/10/06 12:11:47;;;;;;;2.47;1.00;;;24.00;51.50;;;;;;4971743;28;20102;-52
2021/10/06 12:14:21;;;;;;;1.45;0.90;;;23.90;51.40;;;;;;4975209;28;20102;-58
2021/10/06 12:17:07;;;;;;;2.10;0.95;;;24.00;51.50;;;;;;4981362;28;20149;-50
2021/10/06 12:19:34;;;;;;;2.63;1.00;;;24.00;51.50;;;;;;4963421;28;20703;-54
2021/10/06 12:22:00;;;;;;;2.45;0.95;;;24.00;51.50;;;;;;4966497;28;20047;-50
2021/10/06 12:24:29;;;;;;;3.00;1.15;;;24.00;51.50;;;;;;4968515;28;20593;-60
2021/10/06 12:26:55;;;;;;;2.15;0.90;;;24.00;51.60;;;;;;4962927;28;20051;-57
2021/10/06 12:29:28;;;;;;;2.10;1.10;;;24.00;51.60;;;;;;4969362;28;20034;-57
2021/10/06 12:32:10;;;;;;;2.80;1.30;;;24.00;51.60;;;;;;4960321;28;20118;-60
2021/10/06 12:34:35;;;;;;;3.08;1.30;;;24.00;51.50;;;;;;4963978;28;20374;-54
2021/10/06 12:37:04;;;;;;;2.63;1.30;;;24.00;51.40;;;;;;4958373;28;20051;-58
2021/10/06 12:39:29;;;;;;;3.40;1.35;;;24.00;51.40;;;;;;4967700;28;20031;-54
2021/10/06 12:42:00;;;;;;;3.92;1.48;;;24.00;51.30;;;;;;4968643;28;20375;-53
2021/10/06 12:44:34;;;;;;;2.97;1.35;;;24.00;51.30;;;;;;4966106;28;20073;-54
2021/10/06 12:47:01;;;;;;;3.13;1.40;;;24.00;51.30;;;;;;4968169;28;20034;-54
2021/10/06 12:49:29;;;;;;;2.95;1.30;;;24.00;51.30;;;;;;4965366;28;20161;-56
2021/10/06 12:52:03;;;;;;;3.00;1.10;;;24.10;51.50;;;;;;4966393;28;20039;-52